Time;durP1;ratioP1;P1;durP2;ratioP2;P2;SDS_P1;SDS_P2;PMS_P1;PMS_P2;Temp;Humidity;BMP_temperature;BMP_pressure;BME280_temperature;BME280_humidity;BME280_pressure;Samples;Min_cycle;Max_cycle;Signal;HPM_P1;HPM_P2
2022/03/28 00:01:59;;;;;;;22.90;10.27;;;;;;;7.73;54.81;102489.50;4964772;28;100951;-82
2022/03/28 00:04:24;;;;;;;18.97;10.90;;;;;;;7.70;54.75;102493.06;4965263;28;99482;-82
2022/03/28 00:06:50;;;;;;;25.73;11.70;;;;;;;7.71;54.86;102477.41;4968258;28;97116;-82
2022/03/28 00:09:15;;;;;;;19.27;10.57;;;;;;;7.70;54.61;102481.34;4967955;28;97016;-81
2022/03/28 00:11:41;;;;;;;20.27;9.60;;;;;;;7.65;54.87;102479.09;4967309;28;98795;-82
2022/03/28 00:14:06;;;;;;;16.37;9.60;;;;;;;7.58;54.91;102489.03;4966196;28;97262;-82
2022/03/28 00:16:32;;;;;;;25.60;10.37;;;;;;;7.55;54.65;102489.91;4963864;28;97096;-81
2022/03/28 00:18:57;;;;;;;19.60;11.27;;;;;;;7.54;54.76;102485.63;4967599;28;97121;-82
2022/03/28 00:21:23;;;;;;;18.60;9.43;;;;;;;7.53;54.67;102472.34;4963105;28;96920;-82
2022/03/28 00:23:48;;;;;;;21.83;10.50;;;;;;;7.52;54.56;102481.75;4960710;28;97574;-82
2022/03/28 00:26:14;;;;;;;20.40;9.43;;;;;;;7.50;54.65;102479.44;4957290;28;97252;-82
2022/03/28 00:28:39;;;;;;;21.23;10.97;;;;;;;7.47;54.93;102477.56;4962037;28;96751;-82
2022/03/28 00:31:04;;;;;;;18.87;9.70;;;;;;;7.36;54.99;102457.84;4975971;28;99765;-82
2022/03/28 00:33:30;;;;;;;18.27;9.43;;;;;;;7.41;54.82;102468.31;4963437;28;97376;-81
2022/03/28 00:35:56;;;;;;;21.67;11.30;;;;;;;7.37;54.75;102459.41;4964005;28;97003;-82
2022/03/28 00:38:22;;;;;;;19.20;8.67;;;;;;;7.40;54.76;102463.28;4964489;28;96742;-82
2022/03/28 00:40:47;;;;;;;20.33;10.07;;;;;;;7.34;54.96;102467.69;4965516;28;97001;-82
2022/03/28 00:43:13;;;;;;;18.77;9.60;;;;;;;7.28;54.69;102459.22;4962069;28;98679;-82
2022/03/28 00:45:40;;;;;;;19.93;9.80;;;;;;;7.25;54.71;102459.31;4965815;28;97186;-82
2022/03/28 00:48:07;;;;;;;15.07;8.10;;;;;;;7.22;54.86;102438.25;4962163;28;97191;-82
2022/03/28 00:50:34;;;;;;;22.80;10.30;;;;;;;7.19;54.92;102445.34;4964478;28;97924;-82
2022/03/28 00:53:00;;;;;;;24.67;11.50;;;;;;;7.19;55.04;102456.28;4965402;28;99621;-81
2022/03/28 00:55:26;;;;;;;25.07;12.07;;;;;;;7.17;54.79;102449.69;4966423;28;96724;-82
2022/03/28 00:57:53;;;;;;;27.00;11.70;;;;;;;7.13;55.13;102447.03;4965483;28;97153;-82
2022/03/28 01:00:19;;;;;;;19.80;9.73;;;;;;;7.07;54.94;102435.06;4965488;28;100023;-82
2022/03/28 01:02:46;;;;;;;21.97;10.50;;;;;;;7.05;55.27;102464.81;4960461;28;98118;-81
2022/03/28 01:05:12;;;;;;;18.53;9.83;;;;;;;7.04;55.00;102435.13;4965168;28;97019;-83
2022/03/28 01:07:39;;;;;;;22.67;10.03;;;;;;;7.02;55.16;102432.81;4965517;28;98318;-82
2022/03/28 01:10:05;;;;;;;26.13;9.70;;;;;;;6.99;55.14;102454.78;4965578;28;98221;-81
2022/03/28 01:12:32;;;;;;;20.17;9.90;;;;;;;6.99;55.13;102439.13;4964254;28;97120;-82
2022/03/28 01:14:58;;;;;;;16.07;9.30;;;;;;;6.97;55.10;102440.78;4962160;28;96714;-82
2022/03/28 01:20:08;;;;;;;24.87;11.60;;;;;;;6.96;54.86;102434.53;4964238;28;97065;-82
2022/03/28 01:22:34;;;;;;;21.27;10.23;;;;;;;6.89;54.95;102426.47;4966612;28;98408;-82
2022/03/28 01:25:01;;;;;;;19.80;10.27;;;;;;;6.87;55.15;102423.38;4960719;28;97154;-82
2022/03/28 01:27:26;;;;;;;19.50;10.47;;;;;;;6.86;55.09;102408.16;4964018;28;96662;-82
2022/03/28 01:29:52;;;;;;;21.23;9.87;;;;;;;6.86;55.34;102405.41;4966052;28;97825;-82
2022/03/28 01:32:17;;;;;;;20.87;9.30;;;;;;;6.85;55.27;102414.81;4966556;28;98538;-81
2022/03/28 01:34:43;;;;;;;25.33;10.13;;;;;;;6.86;55.44;102419.09;4960833;28;96801;-82
2022/03/28 01:37:08;;;;;;;17.07;8.50;;;;;;;6.83;55.31;102398.06;4965546;28;97391;-81
2022/03/28 01:39:33;;;;;;;20.63;7.83;;;;;;;6.83;55.77;102398.06;4961976;28;103827;-82
2022/03/28 01:41:59;;;;;;;22.53;8.00;;;;;;;6.81;55.59;102397.72;4966267;28;98058;-82
2022/03/28 01:44:25;;;;;;;12.50;5.87;;;;;;;6.86;55.77;102389.00;4965922;28;96976;-82
2022/03/28 01:46:50;;;;;;;13.50;5.60;;;;;;;6.93;56.32;102397.06;4969256;28;97092;-82
2022/03/28 01:49:18;;;;;;;12.83;5.77;;;;;;;6.97;56.40;102388.78;4964985;28;97164;-82
2022/03/28 01:51:46;;;;;;;9.73;5.43;;;;;;;7.00;56.27;102407.84;4967009;28;96901;-82
2022/03/28 01:54:12;;;;;;;10.07;3.93;;;;;;;7.07;56.06;102391.28;4964077;28;97098;-81
2022/03/28 01:56:38;;;;;;;9.87;3.67;;;;;;;7.13;56.44;102378.63;4966056;28;98888;-81
2022/03/28 01:59:04;;;;;;;6.10;3.83;;;;;;;7.19;56.40;102379.66;4962158;28;97745;-82
2022/03/28 02:01:31;;;;;;;13.20;4.00;;;;;;;7.23;56.38;102385.81;4961220;28;99528;-82
2022/03/28 02:03:57;;;;;;;22.93;3.90;;;;;;;7.27;56.36;102378.28;4962246;28;97064;-82
2022/03/28 02:06:22;;;;;;;5.40;3.03;;;;;;;7.30;56.31;102388.38;4964804;28;98117;-82
2022/03/28 02:08:47;;;;;;;3.90;2.80;;;;;;;7.32;56.50;102377.78;4965280;28;99797;-82
2022/03/28 02:11:13;;;;;;;16.50;2.83;;;;;;;7.29;56.14;102375.13;4962641;28;100828;-81
2022/03/28 02:13:38;;;;;;;5.33;2.50;;;;;;;7.21;56.60;102369.03;4966070;28;97365;-81
2022/03/28 02:16:04;;;;;;;4.93;2.13;;;;;;;7.16;56.82;102366.81;4967247;28;96787;-82
2022/03/28 02:18:30;;;;;;;2.43;2.23;;;;;;;7.18;56.61;102367.16;4960081;28;97001;-82
2022/03/28 02:20:55;;;;;;;4.80;2.00;;;;;;;7.24;56.66;102362.72;4961404;28;97304;-82
2022/03/28 02:23:21;;;;;;;13.03;3.97;;;;;;;7.21;56.55;102352.63;4963647;28;97284;-82
2022/03/28 02:25:47;;;;;;;4.40;4.00;;;;;;;7.21;56.58;102360.03;4963802;28;96780;-82
2022/03/28 02:28:13;;;;;;;3.67;3.20;;;;;;;7.25;56.94;102352.53;4967361;28;97138;-81
2022/03/28 02:30:39;;;;;;;5.73;2.57;;;;;;;7.17;57.08;102351.16;4959832;28;96702;-80
2022/03/28 02:33:06;;;;;;;3.60;3.30;;;;;;;7.21;56.96;102349.88;4961100;28;97157;-81
2022/03/28 02:35:31;;;;;;;13.67;2.93;;;;;;;7.30;56.83;102344.56;4962935;28;96937;-81
2022/03/28 02:38:01;;;;;;;8.83;2.90;;;;;;;7.32;56.66;102339.44;4968117;28;96859;-81
2022/03/28 02:40:32;;;;;;;6.13;4.63;;;;;;;7.37;57.00;102336.19;4956375;28;102518;-82
2022/03/28 02:42:58;;;;;;;7.30;5.60;;;;;;;7.39;56.94;102335.75;4961939;28;96961;-82
2022/03/28 02:45:25;;;;;;;5.57;4.20;;;;;;;7.43;56.62;102345.44;4956483;28;96807;-81
2022/03/28 02:47:50;;;;;;;2.67;2.50;;;;;;;7.46;56.78;102341.84;4965133;28;100845;-82
2022/03/28 02:50:16;;;;;;;3.77;2.60;;;;;;;7.47;56.83;102351.59;4963413;28;96929;-81
2022/03/28 02:52:41;;;;;;;11.10;3.60;;;;;;;7.38;56.67;102345.94;4965709;28;97392;-81
2022/03/28 02:55:07;;;;;;;5.70;3.77;;;;;;;7.26;57.30;102338.44;4967321;28;96456;-81
2022/03/28 02:57:33;;;;;;;5.00;2.93;;;;;;;7.34;57.15;102345.25;4967908;28;97033;-81
2022/03/28 02:59:59;;;;;;;10.40;8.87;;;;;;;7.36;57.35;102336.63;4967769;28;97505;-82
2022/03/28 03:02:24;;;;;;;11.07;5.83;;;;;;;7.37;57.27;102332.69;4965391;28;96977;-81
2022/03/28 03:04:50;;;;;;;5.60;3.70;;;;;;;7.40;57.31;102338.06;4968506;28;97843;-81
2022/03/28 03:07:15;;;;;;;3.00;2.67;;;;;;;7.43;57.27;102333.69;4965810;28;97412;-82
2022/03/28 03:09:41;;;;;;;2.40;2.30;;;;;;;7.42;57.39;102324.75;4963230;28;96964;-82
2022/03/28 03:12:07;;;;;;;4.83;2.10;;;;;;;7.45;57.52;102334.81;4966475;28;97158;-82
2022/03/28 03:14:33;;;;;;;2.27;2.10;;;;;;;7.33;56.98;102324.56;4961679;28;96841;-81
2022/03/28 03:16:58;;;;;;;4.00;2.30;;;;;;;7.28;57.40;102338.75;4966836;28;100849;-82
2022/03/28 03:19:23;;;;;;;5.70;2.07;;;;;;;7.27;57.64;102326.25;4966179;28;100123;-82
2022/03/28 03:21:49;;;;;;;2.70;1.83;;;;;;;7.31;57.58;102329.69;4967701;28;96840;-82
2022/03/28 03:24:14;;;;;;;8.97;2.57;;;;;;;7.34;57.58;102317.88;4965152;28;96980;-82
2022/03/28 03:26:40;;;;;;;7.33;1.90;;;;;;;7.32;57.60;102325.75;4968436;28;97543;-81
2022/03/28 03:29:05;;;;;;;2.17;2.07;;;;;;;7.37;57.82;102327.97;4963598;28;99026;-82
2022/03/28 03:31:31;;;;;;;1.83;1.73;;;;;;;7.44;57.66;102327.03;4965470;28;96887;-82
2022/03/28 03:33:57;;;;;;;1.97;1.87;;;;;;;7.49;57.80;102327.28;4966474;28;96596;-82
2022/03/28 03:36:22;;;;;;;7.27;1.83;;;;;;;7.53;57.51;102333.44;4963943;28;97448;-83
2022/03/28 03:38:48;;;;;;;3.03;1.77;;;;;;;7.57;57.91;102341.56;4961472;28;100601;-82
2022/03/28 03:41:13;;;;;;;4.93;1.40;;;;;;;7.58;57.56;102324.69;4963092;28;96866;-82
2022/03/28 03:43:38;;;;;;;9.93;2.10;;;;;;;7.54;57.56;102315.81;4962769;28;97383;-82
2022/03/28 03:46:04;;;;;;;20.13;2.50;;;;;;;7.56;57.27;102313.41;4962651;28;97099;-83
2022/03/28 03:48:30;;;;;;;1.67;1.57;;;;;;;7.49;57.79;102316.31;4968127;28;96831;-82
2022/03/28 03:50:56;;;;;;;4.73;1.83;;;;;;;7.55;57.77;102311.09;4968381;28;97083;-82
2022/03/28 03:53:21;;;;;;;4.83;2.00;;;;;;;7.53;57.67;102297.06;4970245;28;96843;-81
2022/03/28 03:55:48;;;;;;;1.90;1.80;;;;;;;7.49;57.99;102307.34;4962269;28;97569;-81
2022/03/28 03:58:13;;;;;;;4.27;2.73;;;;;;;7.50;57.88;102309.66;4962395;28;96661;-81
2022/03/28 04:00:40;;;;;;;2.37;2.17;;;;;;;7.54;57.76;102306.81;4959227;28;97049;-81
2022/03/28 04:03:05;;;;;;;2.13;2.03;;;;;;;7.58;57.92;102321.19;4964032;28;96716;-81
2022/03/28 04:05:32;;;;;;;2.33;2.13;;;;;;;7.64;58.17;102316.75;4964379;28;97540;-80
2022/03/28 04:07:59;;;;;;;2.00;1.90;;;;;;;7.70;57.84;102304.06;4965927;28;96926;-81
2022/03/28 04:10:26;;;;;;;2.67;1.83;;;;;;;7.73;58.00;102300.47;4959484;28;97240;-81
2022/03/28 04:12:52;;;;;;;2.90;1.90;;;;;;;7.80;58.01;102299.50;4957852;28;96800;-80
2022/03/28 04:15:17;;;;;;;2.40;2.20;;;;;;;7.82;57.90;102300.59;4963660;28;98413;-81
2022/03/28 04:17:43;;;;;;;8.30;2.50;;;;;;;7.84;57.94;102291.94;4959543;28;99485;-81
2022/03/28 04:20:33;;;;;;;;;;;;;;;;;;;;;
2022/03/28 04:23:11;;;;;;;5.83;1.90;;;;;;;7.87;58.20;102293.81;4907774;28;125733;-81
2022/03/28 04:25:37;;;;;;;3.23;2.37;;;;;;;7.88;57.99;102289.88;4918516;28;102436;-81
2022/03/28 04:28:06;;;;;;;1.73;1.63;;;;;;;7.92;58.13;102285.06;4958982;28;97137;-82
2022/03/28 04:30:32;;;;;;;1.90;1.80;;;;;;;7.92;58.03;102290.53;4964982;28;96708;-82
2022/03/28 04:32:57;;;;;;;2.10;2.00;;;;;;;7.94;57.82;102293.63;4967483;28;96972;-82
2022/03/28 04:35:23;;;;;;;1.93;1.83;;;;;;;7.95;57.88;102298.66;4960589;28;98365;-82
2022/03/28 04:37:49;;;;;;;1.50;1.47;;;;;;;7.94;58.17;102291.66;4966247;28;96998;-83
2022/03/28 04:40:16;;;;;;;1.20;1.10;;;;;;;7.95;58.04;102284.94;4966070;28;96944;-82
2022/03/28 04:42:42;;;;;;;2.73;1.60;;;;;;;7.91;57.88;102280.78;4966015;28;96710;-83
2022/03/28 04:45:08;;;;;;;2.80;1.00;;;;;;;7.79;57.93;102271.34;4965749;28;98855;-82
2022/03/28 04:47:35;;;;;;;10.87;1.20;;;;;;;7.75;57.84;102275.38;4965090;28;96788;-82
2022/03/28 04:50:01;;;;;;;0.90;0.90;;;;;;;7.72;58.10;102265.25;4963169;28;97100;-82
2022/03/28 04:52:26;;;;;;;1.20;1.20;;;;;;;7.79;58.25;102276.81;4967117;28;97063;-82
2022/03/28 04:54:52;;;;;;;1.30;1.20;;;;;;;7.80;58.11;102288.53;4960922;28;99573;-82
2022/03/28 04:57:17;;;;;;;1.20;1.20;;;;;;;7.73;58.21;102262.09;4961474;28;98401;-82
2022/03/28 04:59:43;;;;;;;1.00;0.80;;;;;;;7.66;58.42;102267.00;4964544;28;96996;-83
2022/03/28 05:02:08;;;;;;;2.30;0.97;;;;;;;7.62;58.20;102260.84;4963359;28;97126;-82
2022/03/28 05:04:35;;;;;;;0.97;0.97;;;;;;;7.61;58.25;102259.31;4957796;28;97528;-81
2022/03/28 05:07:00;;;;;;;3.03;0.67;;;;;;;7.46;58.32;102273.38;4967780;28;98742;-82
2022/03/28 05:09:26;;;;;;;1.30;0.80;;;;;;;7.43;58.61;102271.50;4963080;28;97412;-82
2022/03/28 05:11:51;;;;;;;3.43;0.90;;;;;;;7.45;58.62;102277.31;4962821;28;96765;-82
2022/03/28 05:14:18;;;;;;;3.47;0.90;;;;;;;7.42;58.76;102256.28;4966619;28;97913;-82
2022/03/28 05:16:44;;;;;;;3.93;1.40;;;;;;;7.36;58.88;102260.72;4960075;28;100228;-82
2022/03/28 05:19:10;;;;;;;1.57;1.00;;;;;;;7.35;58.69;102256.47;4957131;28;97026;-83
2022/03/28 05:21:35;;;;;;;6.07;1.00;;;;;;;7.36;58.66;102266.19;4964943;28;97369;-82
2022/03/28 05:24:00;;;;;;;1.37;1.10;;;;;;;7.29;58.83;102254.69;4965284;28;98968;-83
2022/03/28 05:26:26;;;;;;;0.80;0.80;;;;;;;7.33;59.04;102256.13;4962129;28;97114;-82
2022/03/28 05:28:52;;;;;;;1.00;1.00;;;;;;;7.39;58.86;102248.91;4965860;28;96718;-82
2022/03/28 05:31:17;;;;;;;3.97;0.97;;;;;;;7.37;59.12;102248.59;4962534;28;97719;-83
2022/03/28 05:33:43;;;;;;;2.33;1.10;;;;;;;7.39;58.78;102242.66;4962591;28;98545;-82
2022/03/28 05:36:08;;;;;;;0.70;0.67;;;;;;;7.38;58.75;102244.63;4970390;28;98940;-82
2022/03/28 05:38:42;;;;;;;0.77;0.77;;;;;;;7.34;59.08;102241.22;4978644;27;96767;-51
2022/03/28 05:41:08;;;;;;;2.13;0.90;;;;;;;7.31;59.29;102244.06;4968238;27;96898;-51
2022/03/28 05:43:35;;;;;;;1.20;0.70;;;;;;;7.32;59.33;102238.16;4971501;27;97760;-51
2022/03/28 05:46:02;;;;;;;0.60;0.60;;;;;;;7.41;59.05;102230.09;4979816;28;97195;-51
2022/03/28 05:48:28;;;;;;;3.63;0.77;;;;;;;7.55;59.28;102234.41;4968927;28;96809;-51
2022/03/28 05:50:53;;;;;;;0.60;0.60;;;;;;;7.55;59.21;102228.94;4961017;28;97153;-51
2022/03/28 05:53:19;;;;;;;0.70;0.70;;;;;;;7.43;59.17;102230.44;4965404;28;98542;-51
2022/03/28 05:55:44;;;;;;;2.10;0.70;;;;;;;7.42;59.07;102228.91;4963568;28;96814;-53
2022/03/28 05:58:10;;;;;;;1.73;0.80;;;;;;;7.44;59.15;102233.94;4963813;28;97160;-50
2022/03/28 06:00:36;;;;;;;0.87;0.87;;;;;;;7.47;59.07;102227.56;4966597;28;97411;-51
2022/03/28 06:03:04;;;;;;;0.60;0.60;;;;;;;7.57;59.51;102221.84;4970726;28;97434;-51
2022/03/28 06:05:30;;;;;;;1.17;0.70;;;;;;;7.69;59.58;102222.31;4969004;28;100398;-51
2022/03/28 06:07:56;;;;;;;1.00;1.00;;;;;;;7.78;59.40;102225.16;4968946;28;97387;-51
2022/03/28 06:10:21;;;;;;;4.60;0.77;;;;;;;7.83;59.02;102222.69;4969117;28;96808;-53
2022/03/28 06:12:46;;;;;;;2.00;1.90;;;;;;;7.79;58.88;102216.53;4962915;28;126893;-52
2022/03/28 06:15:12;;;;;;;1.17;1.10;;;;;;;7.68;59.50;102215.28;4962004;28;97103;-52
2022/03/28 06:17:38;;;;;;;3.90;1.60;;;;;;;7.65;59.54;102213.41;4965889;28;96947;-52
2022/03/28 06:20:04;;;;;;;1.00;1.00;;;;;;;7.54;59.61;102214.47;4970638;28;97427;-53
2022/03/28 06:22:30;;;;;;;2.33;2.20;;;;;;;7.54;59.96;102211.75;4970347;28;98365;-52
2022/03/28 06:24:56;;;;;;;1.33;1.23;;;;;;;7.69;59.57;102206.63;4969027;28;97172;-51
2022/03/28 06:27:24;;;;;;;1.00;1.00;;;;;;;7.83;59.54;102210.94;4967956;28;99188;-51
2022/03/28 06:29:50;;;;;;;1.30;1.20;;;;;;;7.95;59.40;102205.47;4972018;28;97051;-52
2022/03/28 06:32:16;;;;;;;0.70;0.70;;;;;;;8.05;59.23;102207.16;4969203;28;97287;-52
2022/03/28 06:34:41;;;;;;;0.60;0.60;;;;;;;8.14;59.34;102210.03;4963255;28;98686;-52
2022/03/28 06:37:07;;;;;;;1.17;0.87;;;;;;;8.21;59.36;102218.00;4964980;28;97014;-51
2022/03/28 06:39:34;;;;;;;1.17;1.07;;;;;;;8.28;59.04;102217.84;4962955;28;110611;-51
2022/03/28 06:41:59;;;;;;;0.67;0.67;;;;;;;8.36;59.22;102220.38;4964797;28;100540;-51
2022/03/28 06:44:24;;;;;;;0.93;0.93;;;;;;;8.43;59.13;102217.41;4969578;28;96810;-53
2022/03/28 06:46:50;;;;;;;0.70;0.70;;;;;;;8.48;59.35;102216.84;4967263;28;109437;-51
2022/03/28 06:49:16;;;;;;;0.80;0.80;;;;;;;8.56;58.99;102218.19;4960961;28;96887;-54
2022/03/28 06:51:42;;;;;;;1.20;1.10;;;;;;;8.60;58.92;102214.13;4959755;28;98454;-52
2022/03/28 06:54:08;;;;;;;1.00;0.97;;;;;;;8.67;59.10;102222.09;4955238;28;97235;-53
2022/03/28 06:56:35;;;;;;;4.00;0.70;;;;;;;8.61;58.76;102210.16;4955559;28;96941;-52
2022/03/28 06:59:00;;;;;;;1.13;1.03;;;;;;;8.59;58.92;102214.53;4951160;28;97041;-52
2022/03/28 07:01:26;;;;;;;4.17;1.47;;;;;;;8.60;59.04;102216.09;4954703;28;98500;-53
2022/03/28 07:03:51;;;;;;;1.20;0.90;;;;;;;8.55;59.29;102205.66;4954788;28;97806;-52
2022/03/28 07:06:17;;;;;;;1.30;1.20;;;;;;;8.48;58.66;102203.13;4954038;28;96698;-52
2022/03/28 07:08:42;;;;;;;2.83;1.57;;;;;;;8.39;59.04;102197.56;4954588;28;97163;-52
2022/03/28 07:11:07;;;;;;;1.67;0.90;;;;;;;8.42;59.27;102191.97;4953794;28;123728;-52
2022/03/28 07:13:32;;;;;;;1.70;1.50;;;;;;;8.51;59.32;102188.53;4960736;28;98804;-55
2022/03/28 07:15:58;;;;;;;1.40;1.30;;;;;;;8.59;59.51;102176.91;4954650;28;97351;-52
2022/03/28 07:18:24;;;;;;;1.37;1.17;;;;;;;8.69;59.32;102181.25;4956523;28;97023;-52
2022/03/28 07:20:52;;;;;;;1.03;0.93;;;;;;;8.81;59.30;102180.50;4953197;28;97845;-52
2022/03/28 07:23:18;;;;;;;1.37;1.23;;;;;;;8.92;59.21;102180.13;4956177;28;97190;-52
2022/03/28 07:25:44;;;;;;;0.70;0.70;;;;;;;8.99;59.21;102183.41;4953945;28;96853;-52
2022/03/28 07:28:12;;;;;;;1.47;1.37;;;;;;;9.10;59.08;102185.03;4951344;28;97039;-52
2022/03/28 07:30:39;;;;;;;1.60;1.50;;;;;;;9.06;58.88;102187.91;4952293;28;96988;-52
2022/03/28 07:33:06;;;;;;;1.60;1.50;;;;;;;8.78;59.27;102181.38;4953916;28;97250;-52
2022/03/28 07:35:33;;;;;;;1.33;1.10;;;;;;;8.70;59.04;102182.03;4955878;28;97154;-51
2022/03/28 07:37:58;;;;;;;1.53;1.40;;;;;;;8.55;59.42;102187.22;4948364;28;97150;-52
2022/03/28 07:40:25;;;;;;;0.97;0.97;;;;;;;8.66;59.76;102186.88;4954378;28;97599;-52
2022/03/28 07:42:51;;;;;;;1.13;1.10;;;;;;;8.84;59.77;102192.56;4954406;28;97390;-53
2022/03/28 07:45:17;;;;;;;1.30;1.20;;;;;;;9.00;59.69;102187.69;4955767;28;96941;-52
2022/03/28 07:47:43;;;;;;;1.37;1.27;;;;;;;9.13;59.53;102189.63;4955817;28;97074;-53
2022/03/28 07:50:09;;;;;;;1.10;1.00;;;;;;;9.19;59.13;102198.84;4957030;28;96785;-53
2022/03/28 07:52:35;;;;;;;1.23;1.13;;;;;;;9.23;59.19;102193.97;4951948;28;97376;-53
2022/03/28 07:55:01;;;;;;;1.10;1.00;;;;;;;9.25;59.21;102191.56;4956521;28;96846;-51
2022/03/28 07:57:27;;;;;;;1.40;1.30;;;;;;;9.15;59.06;102181.72;4959287;28;97132;-51
2022/03/28 07:59:52;;;;;;;1.03;1.03;;;;;;;9.06;59.48;102174.91;4952897;28;97393;-51
2022/03/28 08:02:18;;;;;;;1.50;1.40;;;;;;;9.12;59.64;102175.13;4958097;28;96884;-51
2022/03/28 08:04:45;;;;;;;1.30;1.20;;;;;;;9.14;59.28;102166.44;4955337;28;97098;-52
2022/03/28 08:07:12;;;;;;;1.20;1.10;;;;;;;9.26;59.55;102160.88;4954683;28;97137;-53
2022/03/28 08:09:38;;;;;;;1.27;1.20;;;;;;;9.41;59.13;102161.16;4956538;28;97935;-52
2022/03/28 08:12:05;;;;;;;1.70;1.60;;;;;;;9.27;59.42;102159.69;4957097;28;97305;-52
2022/03/28 08:14:31;;;;;;;3.00;2.27;;;;;;;9.29;59.41;102159.25;4951833;28;96861;-53
2022/03/28 08:16:57;;;;;;;1.70;1.60;;;;;;;9.45;59.47;102164.56;4952720;28;96924;-53
2022/03/28 08:19:23;;;;;;;1.40;1.30;;;;;;;9.59;59.44;102166.78;4958269;28;106472;-55
2022/03/28 08:21:49;;;;;;;1.80;1.70;;;;;;;9.66;58.82;102161.03;4954589;28;98408;-53
2022/03/28 08:24:14;;;;;;;1.80;1.70;;;;;;;9.66;59.12;102180.25;4956594;28;96980;-53
2022/03/28 08:26:40;;;;;;;2.03;1.93;;;;;;;9.73;59.19;102144.28;4956489;28;96966;-53
2022/03/28 08:29:06;;;;;;;2.40;2.20;;;;;;;9.83;59.01;102160.34;4959586;28;96979;-53
2022/03/28 08:31:32;;;;;;;2.23;2.03;;;;;;;9.93;59.09;102152.16;4958938;28;97303;-53
2022/03/28 08:33:57;;;;;;;2.27;2.00;;;;;;;10.02;58.88;102150.22;4956954;28;96916;-53
2022/03/28 08:36:23;;;;;;;2.20;2.00;;;;;;;10.11;58.75;102152.28;4954275;28;96875;-53
2022/03/28 08:38:48;;;;;;;2.30;2.10;;;;;;;10.18;58.77;102144.50;4954819;28;98782;-57
2022/03/28 08:41:17;;;;;;;2.90;2.20;;;;;;;10.31;58.80;102139.66;4958373;28;97532;-53
2022/03/28 08:43:42;;;;;;;2.97;2.67;;;;;;;10.40;58.72;102139.69;4955947;28;97137;-53
2022/03/28 08:46:09;;;;;;;7.37;4.47;;;;;;;10.44;58.34;102134.81;4948394;28;97134;-54
2022/03/28 08:48:40;;;;;;;4.00;3.30;;;;;;;10.52;58.50;102138.03;4945288;28;98548;-53
2022/03/28 08:51:08;;;;;;;4.00;3.47;;;;;;;10.59;58.44;102126.75;4944674;28;97535;-53
2022/03/28 08:53:34;;;;;;;2.57;2.37;;;;;;;10.66;58.34;102126.44;4950708;28;96947;-53
2022/03/28 08:56:00;;;;;;;3.23;2.93;;;;;;;10.73;58.05;102128.13;4951009;28;96849;-52
2022/03/28 08:58:25;;;;;;;3.07;2.87;;;;;;;10.55;57.86;102118.63;4949513;28;98505;-53
2022/03/28 09:00:51;;;;;;;3.77;3.47;;;;;;;10.45;58.19;102121.81;4957672;28;97234;-50
2022/03/28 09:03:16;;;;;;;6.93;4.20;;;;;;;10.31;58.20;102117.66;4956811;28;97348;-51
2022/03/28 09:05:47;;;;;;;4.67;3.73;;;;;;;10.17;58.49;102114.72;4947339;28;110553;-53
2022/03/28 09:08:12;;;;;;;5.87;4.40;;;;;;;10.13;58.57;102116.84;4948640;28;97551;-51
2022/03/28 09:10:38;;;;;;;4.70;3.90;;;;;;;10.21;58.49;102109.84;4947929;28;97787;-51
2022/03/28 09:13:13;;;;;;;5.50;4.07;;;;;;;10.26;58.98;102110.03;4943850;28;96949;-51
2022/03/28 09:15:55;;;;;;;4.60;3.87;;;;;;;10.40;59.19;102112.19;4950383;28;96968;-52
2022/03/28 09:18:26;;;;;;;5.53;4.40;;;;;;;10.57;58.55;102120.16;4948275;28;101372;-51
2022/03/28 09:20:59;;;;;;;5.67;4.53;;;;;;;10.72;58.27;102116.38;4953177;28;101726;-52
2022/03/28 09:23:42;;;;;;;5.40;4.30;;;;;;;10.50;58.31;102108.25;4954045;28;96848;-51
2022/03/28 09:26:20;;;;;;;7.83;4.33;;;;;;;10.41;58.38;102110.19;4954003;28;96802;-51
2022/03/28 09:28:56;;;;;;;6.60;4.70;;;;;;;10.40;58.52;102114.16;4947890;28;98701;-51
2022/03/28 09:31:32;;;;;;;6.97;4.33;;;;;;;10.47;58.51;102111.91;4941655;28;97490;-52
2022/03/28 09:34:18;;;;;;;6.27;4.53;;;;;;;10.55;58.78;102104.88;4947754;28;97236;-51
2022/03/28 09:36:48;;;;;;;5.90;4.60;;;;;;;10.68;58.38;102110.22;4948427;28;96995;-51
2022/03/28 09:39:28;;;;;;;5.87;4.80;;;;;;;10.82;58.28;102111.63;4951538;28;96818;-51
2022/03/28 09:42:08;;;;;;;5.07;4.40;;;;;;;10.87;58.06;102092.53;4949205;28;97136;-52
2022/03/28 09:44:43;;;;;;;5.03;4.00;;;;;;;10.83;57.72;102107.66;4951355;28;97042;-52
2022/03/28 09:47:12;;;;;;;6.30;5.30;;;;;;;10.62;57.75;102105.78;4950866;28;97099;-52
2022/03/28 09:49:38;;;;;;;6.90;5.63;;;;;;;10.63;57.90;102110.06;4946893;28;97522;-52
2022/03/28 09:52:13;;;;;;;7.70;5.40;;;;;;;10.50;57.92;102099.97;4945923;28;97534;-52
2022/03/28 09:54:50;;;;;;;6.90;4.80;;;;;;;10.63;58.65;102101.81;4945087;28;97586;-52
2022/03/28 09:57:19;;;;;;;6.57;5.00;;;;;;;10.80;58.16;102098.31;4944848;28;97907;-52
2022/03/28 09:59:44;;;;;;;7.87;5.73;;;;;;;10.91;57.91;102087.63;4949363;28;97231;-54
2022/03/28 10:02:15;;;;;;;5.93;4.97;;;;;;;11.10;57.93;102088.34;4953717;28;96866;-52
2022/03/28 10:04:44;;;;;;;7.13;4.60;;;;;;;11.12;57.30;102083.91;4954053;28;97609;-52
2022/03/28 10:07:09;;;;;;;6.60;4.50;;;;;;;10.95;57.56;102082.72;4952366;28;97100;-52
2022/03/28 10:09:36;;;;;;;8.73;5.00;;;;;;;11.03;57.59;102086.69;4952285;28;98517;-51
2022/03/28 10:12:02;;;;;;;7.10;4.73;;;;;;;10.98;57.40;102081.03;4950665;28;105718;-52
2022/03/28 10:14:29;;;;;;;6.97;5.30;;;;;;;10.96;57.27;102097.25;4917556;22;97118;-80
2022/03/28 10:16:55;;;;;;;6.03;4.13;;;;;;;11.18;57.92;102075.81;4911408;28;96945;-80
2022/03/28 10:19:22;;;;;;;6.20;4.17;;;;;;;11.48;57.54;102082.31;4904009;28;96999;-81
2022/03/28 10:21:48;;;;;;;4.60;3.97;;;;;;;11.71;57.17;102090.69;4912974;28;103879;-82
2022/03/28 10:24:22;;;;;;;5.20;4.40;;;;;;;11.93;56.85;102091.22;4914070;28;97055;-82
2022/03/28 10:26:52;;;;;;;4.70;4.20;;;;;;;12.12;56.45;102074.59;4921558;28;96775;-82
2022/03/28 10:29:22;;;;;;;5.40;4.20;;;;;;;12.11;56.19;102081.34;4916084;28;102011;-81
2022/03/28 10:31:58;;;;;;;7.77;5.07;;;;;;;12.25;56.31;102077.91;4917993;28;99220;-81
2022/03/28 10:35:01;;;;;;;6.23;4.57;;;;;;;12.30;55.89;102074.47;4911576;28;97409;-82
2022/03/28 10:37:43;;;;;;;5.30;4.40;;;;;;;12.41;55.98;102072.72;4912728;28;96812;-81
2022/03/28 10:40:11;;;;;;;5.30;4.43;;;;;;;12.55;56.04;102072.03;4910584;28;104915;-82
2022/03/28 10:42:38;;;;;;;8.67;6.10;;;;;;;12.64;55.89;102066.44;4919910;28;110505;-81
2022/03/28 10:45:11;;;;;;;6.10;5.17;;;;;;;12.68;55.23;102069.00;4913439;28;97726;-81
2022/03/28 10:47:51;;;;;;;6.43;4.80;;;;;;;12.60;55.09;102062.31;4921981;28;97347;-81
2022/03/28 10:50:25;;;;;;;6.43;4.73;;;;;;;12.56;55.29;102058.97;4915505;28;102437;-81
2022/03/28 10:53:16;;;;;;;7.17;4.73;;;;;;;12.49;54.95;102040.75;4912928;28;97862;-81
2022/03/28 10:55:48;;;;;;;8.83;5.93;;;;;;;12.39;54.94;102035.78;4925253;28;97183;-83
2022/03/28 10:58:40;;;;;;;6.97;5.13;;;;;;;12.33;54.43;102032.16;4918582;28;97092;-84
2022/03/28 11:01:06;;;;;;;7.30;5.40;;;;;;;12.29;55.59;102026.06;4910058;28;102981;-82
2022/03/28 11:03:37;;;;;;;6.70;4.80;;;;;;;12.51;55.56;102030.03;4910390;28;98156;-82
2022/03/28 11:06:03;;;;;;;7.53;5.47;;;;;;;12.80;55.38;102013.50;4908451;28;97492;-82
2022/03/28 11:08:40;;;;;;;5.97;4.30;;;;;;;13.10;54.90;102013.56;4914294;28;98443;-82
2022/03/28 11:11:19;;;;;;;5.67;4.57;;;;;;;13.31;54.11;102013.16;4908334;28;96917;-82
2022/03/28 11:13:59;;;;;;;5.27;4.43;;;;;;;13.44;53.75;102002.56;4906403;28;99733;-84
2022/03/28 11:16:51;;;;;;;6.70;4.90;;;;;;;13.59;54.20;101997.00;4912416;28;96863;-82
2022/03/28 11:19:32;;;;;;;6.90;4.50;;;;;;;13.72;53.81;102011.28;4907572;28;101189;-82
2022/03/28 11:22:04;;;;;;;7.10;4.97;;;;;;;13.83;54.26;101988.53;4907594;28;101116;-82
2022/03/28 11:24:45;;;;;;;7.87;5.43;;;;;;;13.88;52.14;102040.44;4910599;28;98957;-84
2022/03/28 11:27:13;;;;;;;17.37;9.70;;;;;;;13.42;53.55;101974.66;4900830;28;97094;-81
2022/03/28 11:29:47;;;;;;;9.50;6.63;;;;;;;13.61;53.89;102026.97;4903255;28;97205;-81
2022/03/28 11:32:15;;;;;;;8.50;6.43;;;;;;;13.88;53.99;102021.06;4913954;28;103043;-83
2022/03/28 11:34:50;;;;;;;8.80;5.90;;;;;;;14.03;53.30;101988.56;4913591;28;98821;-82